sensor_id;sensor_type;location;lat;lon;timestamp;temperature;humidity
45549;DHT22;31270;48.328;10.096;2023-04-03T00:01:16;2.70;99.90
45549;DHT22;31270;48.328;10.096;2023-04-03T00:03:42;2.60;99.90
45549;DHT22;31270;48.328;10.096;2023-04-03T00:06:09;2.70;99.90
45549;DHT22;31270;48.328;10.096;2023-04-03T00:08:37;2.70;99.90
45549;DHT22;31270;48.328;10.096;2023-04-03T00:11:04;2.70;99.90
45549;DHT22;31270;48.328;10.096;2023-04-03T00:13:30;2.60;99.90
45549;DHT22;31270;48.328;10.096;2023-04-03T00:15:56;2.60;99.90
45549;DHT22;31270;48.328;10.096;2023-04-03T00:18:22;2.60;99.90
45549;DHT22;31270;48.328;10.096;2023-04-03T00:20:48;2.60;99.90
45549;DHT22;31270;48.328;10.096;2023-04-03T00:23:14;2.50;99.90
45549;DHT22;31270;48.328;10.096;2023-04-03T00:25:40;2.60;99.90
45549;DHT22;31270;48.328;10.096;2023-04-03T00:28:06;2.50;99.90
45549;DHT22;31270;48.328;10.096;2023-04-03T00:30:32;2.50;99.90
45549;DHT22;31270;48.328;10.096;2023-04-03T00:32:58;2.50;99.90
45549;DHT22;31270;48.328;10.096;2023-04-03T00:35:24;2.40;99.90
45549;DHT22;31270;48.328;10.096;2023-04-03T00:37:54;2.40;99.90
45549;DHT22;31270;48.328;10.096;2023-04-03T00:40:22;2.40;99.90
45549;DHT22;31270;48.328;10.096;2023-04-03T00:42:52;2.30;99.90
45549;DHT22;31270;48.328;10.096;2023-04-03T00:47:43;2.30;99.90
45549;DHT22;31270;48.328;10.096;2023-04-03T00:50:09;2.30;99.90
45549;DHT22;31270;48.328;10.096;2023-04-03T00:52:37;2.40;99.90
45549;DHT22;31270;48.328;10.096;2023-04-03T00:55:06;2.30;99.90
45549;DHT22;31270;48.328;10.096;2023-04-03T00:57:33;2.40;99.90
45549;DHT22;31270;48.328;10.096;2023-04-03T01:00:10;2.30;99.90
45549;DHT22;31270;48.328;10.096;2023-04-03T01:02:36;2.30;99.90
45549;DHT22;31270;48.328;10.096;2023-04-03T01:05:03;2.30;99.90
45549;DHT22;31270;48.328;10.096;2023-04-03T01:07:31;2.30;99.90
45549;DHT22;31270;48.328;10.096;2023-04-03T01:10:01;2.40;99.90
45549;DHT22;31270;48.328;10.096;2023-04-03T01:12:30;2.40;99.90
45549;DHT22;31270;48.328;10.096;2023-04-03T01:15:04;2.30;99.90
45549;DHT22;31270;48.328;10.096;2023-04-03T01:17:42;2.40;99.90
45549;DHT22;31270;48.328;10.096;2023-04-03T01:23:06;2.30;99.90
45549;DHT22;31270;48.328;10.096;2023-04-03T01:25:43;2.30;99.90
45549;DHT22;31270;48.328;10.096;2023-04-03T01:28:13;2.30;99.90
45549;DHT22;31270;48.328;10.096;2023-04-03T01:30:46;2.30;99.90
45549;DHT22;31270;48.328;10.096;2023-04-03T01:33:12;2.40;99.90
45549;DHT22;31270;48.328;10.096;2023-04-03T01:35:38;2.30;99.90
45549;DHT22;31270;48.328;10.096;2023-04-03T01:38:04;2.30;99.90
45549;DHT22;31270;48.328;10.096;2023-04-03T01:40:30;2.40;99.90
45549;DHT22;31270;48.328;10.096;2023-04-03T01:42:55;2.40;99.90
45549;DHT22;31270;48.328;10.096;2023-04-03T01:45:21;2.30;99.90
45549;DHT22;31270;48.328;10.096;2023-04-03T01:47:47;2.40;99.90
45549;DHT22;31270;48.328;10.096;2023-04-03T01:50:14;2.30;99.90
45549;DHT22;31270;48.328;10.096;2023-04-03T01:52:40;2.30;99.90
45549;DHT22;31270;48.328;10.096;2023-04-03T01:55:06;2.30;99.90
45549;DHT22;31270;48.328;10.096;2023-04-03T01:57:32;2.30;99.90
45549;DHT22;31270;48.328;10.096;2023-04-03T01:59:57;2.30;99.90
45549;DHT22;31270;48.328;10.096;2023-04-03T02:02:24;2.50;99.90
45549;DHT22;31270;48.328;10.096;2023-04-03T02:04:51;2.30;99.90
45549;DHT22;31270;48.328;10.096;2023-04-03T02:07:26;2.30;99.90
45549;DHT22;31270;48.328;10.096;2023-04-03T02:09:53;2.30;99.90
45549;DHT22;31270;48.328;10.096;2023-04-03T02:12:19;2.30;99.90
45549;DHT22;31270;48.328;10.096;2023-04-03T02:14:55;2.20;99.90
45549;DHT22;31270;48.328;10.096;2023-04-03T02:17:21;2.20;99.90
45549;DHT22;31270;48.328;10.096;2023-04-03T02:19:46;2.20;99.90
45549;DHT22;31270;48.328;10.096;2023-04-03T02:22:22;2.20;99.90
45549;DHT22;31270;48.328;10.096;2023-04-03T02:24:58;2.40;99.90
45549;DHT22;31270;48.328;10.096;2023-04-03T02:27:33;2.20;99.90
45549;DHT22;31270;48.328;10.096;2023-04-03T02:29:59;2.20;99.90
45549;DHT22;31270;48.328;10.096;2023-04-03T02:32:37;2.20;99.90
45549;DHT22;31270;48.328;10.096;2023-04-03T02:35:04;2.30;99.90
45549;DHT22;31270;48.328;10.096;2023-04-03T02:37:30;2.30;99.90
45549;DHT22;31270;48.328;10.096;2023-04-03T02:40:07;2.30;99.90
45549;DHT22;31270;48.328;10.096;2023-04-03T02:42:32;2.30;99.90
45549;DHT22;31270;48.328;10.096;2023-04-03T02:44:58;2.40;99.90
45549;DHT22;31270;48.328;10.096;2023-04-03T02:47:37;2.30;99.90
45549;DHT22;31270;48.328;10.096;2023-04-03T02:50:03;2.30;99.90
45549;DHT22;31270;48.328;10.096;2023-04-03T02:52:28;2.30;99.90
45549;DHT22;31270;48.328;10.096;2023-04-03T02:55:05;2.30;99.90
45549;DHT22;31270;48.328;10.096;2023-04-03T02:57:31;2.30;99.90
45549;DHT22;31270;48.328;10.096;2023-04-03T02:59:56;2.30;99.90
45549;DHT22;31270;48.328;10.096;2023-04-03T03:02:32;2.20;99.90
45549;DHT22;31270;48.328;10.096;2023-04-03T03:04:58;2.30;99.90
45549;DHT22;31270;48.328;10.096;2023-04-03T03:07:23;2.30;99.90
45549;DHT22;31270;48.328;10.096;2023-04-03T03:09:50;2.20;99.90
45549;DHT22;31270;48.328;10.096;2023-04-03T03:12:16;2.20;99.90
45549;DHT22;31270;48.328;10.096;2023-04-03T03:14:42;2.20;99.90
45549;DHT22;31270;48.328;10.096;2023-04-03T03:17:08;2.20;99.90
45549;DHT22;31270;48.328;10.096;2023-04-03T03:19:33;2.20;99.90
45549;DHT22;31270;48.328;10.096;2023-04-03T03:21:59;2.20;99.90
45549;DHT22;31270;48.328;10.096;2023-04-03T03:24:25;2.20;99.90
45549;DHT22;31270;48.328;10.096;2023-04-03T03:26:50;2.20;99.90
45549;DHT22;31270;48.328;10.096;2023-04-03T03:29:16;2.20;99.90
45549;DHT22;31270;48.328;10.096;2023-04-03T03:31:41;2.20;99.90
45549;DHT22;31270;48.328;10.096;2023-04-03T03:34:07;2.20;99.90
45549;DHT22;31270;48.328;10.096;2023-04-03T03:36:33;2.20;99.90
45549;DHT22;31270;48.328;10.096;2023-04-03T03:39:00;2.20;99.90
45549;DHT22;31270;48.328;10.096;2023-04-03T03:41:25;2.20;99.90
45549;DHT22;31270;48.328;10.096;2023-04-03T03:43:52;2.20;99.90
45549;DHT22;31270;48.328;10.096;2023-04-03T03:46:17;2.20;99.90
45549;DHT22;31270;48.328;10.096;2023-04-03T03:48:43;2.20;99.90
45549;DHT22;31270;48.328;10.096;2023-04-03T03:51:09;2.20;99.90
45549;DHT22;31270;48.328;10.096;2023-04-03T03:53:35;2.20;99.90
45549;DHT22;31270;48.328;10.096;2023-04-03T03:56:01;2.20;99.90
45549;DHT22;31270;48.328;10.096;2023-04-03T03:58:26;2.30;99.90
45549;DHT22;31270;48.328;10.096;2023-04-03T04:00:52;2.20;99.90
45549;DHT22;31270;48.328;10.096;2023-04-03T04:03:18;2.20;99.90
45549;DHT22;31270;48.328;10.096;2023-04-03T04:05:44;2.30;99.90
45549;DHT22;31270;48.328;10.096;2023-04-03T04:08:10;2.30;99.90
45549;DHT22;31270;48.328;10.096;2023-04-03T04:10:37;2.20;99.90
45549;DHT22;31270;48.328;10.096;2023-04-03T04:13:03;2.20;99.90
45549;DHT22;31270;48.328;10.096;2023-04-03T04:15:29;2.20;99.90
45549;DHT22;31270;48.328;10.096;2023-04-03T04:17:55;2.20;99.90
45549;DHT22;31270;48.328;10.096;2023-04-03T04:20:20;2.10;99.90
45549;DHT22;31270;48.328;10.096;2023-04-03T04:22:47;2.10;99.90
45549;DHT22;31270;48.328;10.096;2023-04-03T04:25:13;2.10;99.90
45549;DHT22;31270;48.328;10.096;2023-04-03T04:27:38;2.10;99.90
45549;DHT22;31270;48.328;10.096;2023-04-03T04:30:06;2.10;99.90
45549;DHT22;31270;48.328;10.096;2023-04-03T04:32:32;2.20;99.90
45549;DHT22;31270;48.328;10.096;2023-04-03T04:34:58;2.20;99.90
45549;DHT22;31270;48.328;10.096;2023-04-03T04:37:23;2.20;99.90
45549;DHT22;31270;48.328;10.096;2023-04-03T04:39:49;2.10;99.90
45549;DHT22;31270;48.328;10.096;2023-04-03T04:42:15;2.10;99.90
45549;DHT22;31270;48.328;10.096;2023-04-03T04:44:41;2.20;99.90
45549;DHT22;31270;48.328;10.096;2023-04-03T04:47:06;2.30;99.90
45549;DHT22;31270;48.328;10.096;2023-04-03T04:49:32;2.10;99.90
45549;DHT22;31270;48.328;10.096;2023-04-03T04:51:58;2.10;99.90
45549;DHT22;31270;48.328;10.096;2023-04-03T04:54:23;2.10;99.90
45549;DHT22;31270;48.328;10.096;2023-04-03T04:56:49;2.10;99.90
45549;DHT22;31270;48.328;10.096;2023-04-03T04:59:15;2.10;99.90
45549;DHT22;31270;48.328;10.096;2023-04-03T05:01:40;2.10;99.90
45549;DHT22;31270;48.328;10.096;2023-04-03T05:04:06;2.10;99.90
45549;DHT22;31270;48.328;10.096;2023-04-03T05:06:32;2.10;99.90
45549;DHT22;31270;48.328;10.096;2023-04-03T05:08:58;2.00;99.90
45549;DHT22;31270;48.328;10.096;2023-04-03T05:11:24;2.10;99.90
45549;DHT22;31270;48.328;10.096;2023-04-03T05:13:51;2.00;99.90
45549;DHT22;31270;48.328;10.096;2023-04-03T05:16:16;2.00;99.90
45549;DHT22;31270;48.328;10.096;2023-04-03T05:18:42;2.10;99.90
45549;DHT22;31270;48.328;10.096;2023-04-03T05:21:08;2.00;99.90
45549;DHT22;31270;48.328;10.096;2023-04-03T05:23:34;2.00;99.90
45549;DHT22;31270;48.328;10.096;2023-04-03T05:26:00;2.00;99.90
45549;DHT22;31270;48.328;10.096;2023-04-03T05:28:26;2.00;99.90
45549;DHT22;31270;48.328;10.096;2023-04-03T05:30:56;2.00;99.90
45549;DHT22;31270;48.328;10.096;2023-04-03T05:33:23;2.00;99.90
45549;DHT22;31270;48.328;10.096;2023-04-03T05:35:49;2.00;99.90
45549;DHT22;31270;48.328;10.096;2023-04-03T05:38:15;2.10;99.90
45549;DHT22;31270;48.328;10.096;2023-04-03T05:40:41;2.10;99.90
45549;DHT22;31270;48.328;10.096;2023-04-03T05:43:07;2.10;99.90
45549;DHT22;31270;48.328;10.096;2023-04-03T05:45:33;2.10;99.90
45549;DHT22;31270;48.328;10.096;2023-04-03T05:47:59;2.10;99.90
45549;DHT22;31270;48.328;10.096;2023-04-03T05:50:25;2.10;99.90
45549;DHT22;31270;48.328;10.096;2023-04-03T05:52:52;2.00;99.90
45549;DHT22;31270;48.328;10.096;2023-04-03T05:55:20;2.00;99.90
45549;DHT22;31270;48.328;10.096;2023-04-03T05:57:45;2.10;99.90
45549;DHT22;31270;48.328;10.096;2023-04-03T06:00:15;2.10;99.90
45549;DHT22;31270;48.328;10.096;2023-04-03T06:02:41;2.10;99.90
45549;DHT22;31270;48.328;10.096;2023-04-03T06:05:08;2.10;99.90
45549;DHT22;31270;48.328;10.096;2023-04-03T06:07:35;2.10;99.90
45549;DHT22;31270;48.328;10.096;2023-04-03T06:10:01;2.10;99.90
45549;DHT22;31270;48.328;10.096;2023-04-03T06:12:27;2.10;99.90
45549;DHT22;31270;48.328;10.096;2023-04-03T06:14:54;2.10;99.90
45549;DHT22;31270;48.328;10.096;2023-04-03T06:17:20;2.10;99.90
45549;DHT22;31270;48.328;10.096;2023-04-03T06:19:46;2.20;99.90
45549;DHT22;31270;48.328;10.096;2023-04-03T06:22:12;2.20;99.90
45549;DHT22;31270;48.328;10.096;2023-04-03T06:24:38;2.30;99.90
45549;DHT22;31270;48.328;10.096;2023-04-03T06:27:04;2.10;99.90
45549;DHT22;31270;48.328;10.096;2023-04-03T06:29:30;2.20;99.90
45549;DHT22;31270;48.328;10.096;2023-04-03T06:31:56;2.20;99.90
45549;DHT22;31270;48.328;10.096;2023-04-03T06:34:22;2.30;99.90
45549;DHT22;31270;48.328;10.096;2023-04-03T06:36:48;2.30;99.90
45549;DHT22;31270;48.328;10.096;2023-04-03T06:39:19;2.30;99.90
45549;DHT22;31270;48.328;10.096;2023-04-03T06:41:51;2.30;99.90
45549;DHT22;31270;48.328;10.096;2023-04-03T06:44:17;2.20;99.90
45549;DHT22;31270;48.328;10.096;2023-04-03T06:46:44;2.30;99.90
45549;DHT22;31270;48.328;10.096;2023-04-03T06:49:10;2.30;99.90
45549;DHT22;31270;48.328;10.096;2023-04-03T06:51:36;2.30;99.90
45549;DHT22;31270;48.328;10.096;2023-04-03T06:54:03;2.20;99.90
45549;DHT22;31270;48.328;10.096;2023-04-03T06:56:29;2.20;99.90
45549;DHT22;31270;48.328;10.096;2023-04-03T06:58:56;2.20;99.90
45549;DHT22;31270;48.328;10.096;2023-04-03T07:01:24;2.30;99.90
45549;DHT22;31270;48.328;10.096;2023-04-03T07:03:51;2.30;99.90
45549;DHT22;31270;48.328;10.096;2023-04-03T07:06:18;2.30;99.90
45549;DHT22;31270;48.328;10.096;2023-04-03T07:08:45;2.30;99.90
45549;DHT22;31270;48.328;10.096;2023-04-03T07:11:12;2.40;99.90
45549;DHT22;31270;48.328;10.096;2023-04-03T07:13:38;2.40;99.90
45549;DHT22;31270;48.328;10.096;2023-04-03T07:16:05;2.50;99.90
45549;DHT22;31270;48.328;10.096;2023-04-03T07:18:33;2.50;99.90
45549;DHT22;31270;48.328;10.096;2023-04-03T07:20:59;2.60;99.90
45549;DHT22;31270;48.328;10.096;2023-04-03T07:23:25;2.60;99.90
45549;DHT22;31270;48.328;10.096;2023-04-03T07:25:52;2.70;99.90
45549;DHT22;31270;48.328;10.096;2023-04-03T07:28:19;2.70;99.90
45549;DHT22;31270;48.328;10.096;2023-04-03T07:30:50;2.70;99.90
45549;DHT22;31270;48.328;10.096;2023-04-03T07:33:20;2.70;99.90
45549;DHT22;31270;48.328;10.096;2023-04-03T07:35:46;2.80;99.90
45549;DHT22;31270;48.328;10.096;2023-04-03T07:38:11;2.90;99.90
45549;DHT22;31270;48.328;10.096;2023-04-03T07:40:38;2.90;99.90
45549;DHT22;31270;48.328;10.096;2023-04-03T07:43:04;3.00;99.90
45549;DHT22;31270;48.328;10.096;2023-04-03T07:45:30;2.90;99.90
45549;DHT22;31270;48.328;10.096;2023-04-03T07:47:57;2.90;99.90
45549;DHT22;31270;48.328;10.096;2023-04-03T07:50:23;2.80;99.90
45549;DHT22;31270;48.328;10.096;2023-04-03T07:52:49;2.90;99.90
45549;DHT22;31270;48.328;10.096;2023-04-03T07:55:16;3.00;99.90
45549;DHT22;31270;48.328;10.096;2023-04-03T07:57:42;3.20;99.90
45549;DHT22;31270;48.328;10.096;2023-04-03T08:00:08;3.20;99.90
45549;DHT22;31270;48.328;10.096;2023-04-03T08:02:34;3.30;99.90
45549;DHT22;31270;48.328;10.096;2023-04-03T08:05:00;3.40;99.90
45549;DHT22;31270;48.328;10.096;2023-04-03T08:07:25;3.50;99.90
45549;DHT22;31270;48.328;10.096;2023-04-03T08:09:52;3.60;99.90
45549;DHT22;31270;48.328;10.096;2023-04-03T08:12:18;3.60;99.90
45549;DHT22;31270;48.328;10.096;2023-04-03T08:14:43;3.70;99.90
45549;DHT22;31270;48.328;10.096;2023-04-03T08:17:09;3.90;99.90
45549;DHT22;31270;48.328;10.096;2023-04-03T08:19:38;4.20;99.90
45549;DHT22;31270;48.328;10.096;2023-04-03T08:22:04;4.30;99.90
45549;DHT22;31270;48.328;10.096;2023-04-03T08:24:31;4.30;99.90
45549;DHT22;31270;48.328;10.096;2023-04-03T08:26:57;4.30;99.90
45549;DHT22;31270;48.328;10.096;2023-04-03T08:29:24;4.30;99.90
45549;DHT22;31270;48.328;10.096;2023-04-03T08:31:50;4.30;99.90
45549;DHT22;31270;48.328;10.096;2023-04-03T08:34:16;4.10;99.90
45549;DHT22;31270;48.328;10.096;2023-04-03T08:36:42;4.10;99.90
45549;DHT22;31270;48.328;10.096;2023-04-03T08:39:08;4.20;99.90
45549;DHT22;31270;48.328;10.096;2023-04-03T08:41:55;4.20;99.90
45549;DHT22;31270;48.328;10.096;2023-04-03T08:49:42;4.30;99.90
45549;DHT22;31270;48.328;10.096;2023-04-03T08:52:22;4.30;99.90
45549;DHT22;31270;48.328;10.096;2023-04-03T08:54:55;4.20;99.90
45549;DHT22;31270;48.328;10.096;2023-04-03T08:57:34;4.20;99.90
45549;DHT22;31270;48.328;10.096;2023-04-03T09:02:47;4.20;99.90
45549;DHT22;31270;48.328;10.096;2023-04-03T09:05:19;4.10;99.90
45549;DHT22;31270;48.328;10.096;2023-04-03T09:07:49;4.20;99.90
45549;DHT22;31270;48.328;10.096;2023-04-03T09:10:24;4.30;99.90
45549;DHT22;31270;48.328;10.096;2023-04-03T09:13:09;4.40;99.90
45549;DHT22;31270;48.328;10.096;2023-04-03T09:15:37;4.50;99.90
45549;DHT22;31270;48.328;10.096;2023-04-03T09:18:21;4.60;99.90
45549;DHT22;31270;48.328;10.096;2023-04-03T09:23:45;4.70;99.90
45549;DHT22;31270;48.328;10.096;2023-04-03T09:28:46;4.90;99.90
45549;DHT22;31270;48.328;10.096;2023-04-03T09:31:24;5.00;99.90
45549;DHT22;31270;48.328;10.096;2023-04-03T09:33:55;5.20;99.90
45549;DHT22;31270;48.328;10.096;2023-04-03T09:36:39;5.20;99.90
45549;DHT22;31270;48.328;10.096;2023-04-03T09:39:12;5.20;99.90
45549;DHT22;31270;48.328;10.096;2023-04-03T09:41:38;5.30;99.90
45549;DHT22;31270;48.328;10.096;2023-04-03T09:44:19;5.10;99.90
45549;DHT22;31270;48.328;10.096;2023-04-03T09:46:45;5.10;99.90
45549;DHT22;31270;48.328;10.096;2023-04-03T09:49:11;5.10;99.90
45549;DHT22;31270;48.328;10.096;2023-04-03T09:51:37;5.20;99.90
45549;DHT22;31270;48.328;10.096;2023-04-03T09:54:35;5.20;99.90
45549;DHT22;31270;48.328;10.096;2023-04-03T09:57:14;5.30;99.90
45549;DHT22;31270;48.328;10.096;2023-04-03T10:00:00;5.40;99.90
45549;DHT22;31270;48.328;10.096;2023-04-03T10:02:39;5.40;99.90
45549;DHT22;31270;48.328;10.096;2023-04-03T10:05:33;5.30;99.90
45549;DHT22;31270;48.328;10.096;2023-04-03T10:10:35;5.20;99.90
45549;DHT22;31270;48.328;10.096;2023-04-03T10:13:17;5.20;99.90
45549;DHT22;31270;48.328;10.096;2023-04-03T10:18:42;5.10;99.90
45549;DHT22;31270;48.328;10.096;2023-04-03T10:21:37;5.00;99.90
45549;DHT22;31270;48.328;10.096;2023-04-03T10:35:41;4.80;99.90
45549;DHT22;31270;48.328;10.096;2023-04-03T10:46:38;4.80;99.90
45549;DHT22;31270;48.328;10.096;2023-04-03T10:51:55;4.80;99.90
45549;DHT22;31270;48.328;10.096;2023-04-03T10:54:34;4.90;99.90
45549;DHT22;31270;48.328;10.096;2023-04-03T10:57:08;4.90;99.90
45549;DHT22;31270;48.328;10.096;2023-04-03T11:11:26;5.10;99.90
45549;DHT22;31270;48.328;10.096;2023-04-03T11:14:09;5.10;99.90
45549;DHT22;31270;48.328;10.096;2023-04-03T11:16:48;5.10;99.90
45549;DHT22;31270;48.328;10.096;2023-04-03T11:19:41;5.10;99.90
45549;DHT22;31270;48.328;10.096;2023-04-03T11:24:54;5.00;99.90
45549;DHT22;31270;48.328;10.096;2023-04-03T11:27:22;4.90;99.90
45549;DHT22;31270;48.328;10.096;2023-04-03T11:29:50;4.90;99.90
45549;DHT22;31270;48.328;10.096;2023-04-03T11:35:02;4.80;99.90
45549;DHT22;31270;48.328;10.096;2023-04-03T11:37:36;4.90;99.90
45549;DHT22;31270;48.328;10.096;2023-04-03T11:42:48;4.90;99.90
45549;DHT22;31270;48.328;10.096;2023-04-03T11:45:36;4.90;99.90
45549;DHT22;31270;48.328;10.096;2023-04-03T11:53:54;4.80;99.90
45549;DHT22;31270;48.328;10.096;2023-04-03T11:56:40;4.80;99.90
45549;DHT22;31270;48.328;10.096;2023-04-03T12:01:45;4.80;99.90
45549;DHT22;31270;48.328;10.096;2023-04-03T12:04:13;4.80;99.90
45549;DHT22;31270;48.328;10.096;2023-04-03T12:09:26;4.70;99.90
45549;DHT22;31270;48.328;10.096;2023-04-03T12:11:53;4.80;99.90
45549;DHT22;31270;48.328;10.096;2023-04-03T12:14:23;4.80;99.90
45549;DHT22;31270;48.328;10.096;2023-04-03T12:17:20;4.80;99.90
45549;DHT22;31270;48.328;10.096;2023-04-03T12:19:47;5.00;99.90
45549;DHT22;31270;48.328;10.096;2023-04-03T12:22:15;5.10;99.90
45549;DHT22;31270;48.328;10.096;2023-04-03T12:24:44;5.20;99.90
45549;DHT22;31270;48.328;10.096;2023-04-03T12:27:34;5.20;99.90
45549;DHT22;31270;48.328;10.096;2023-04-03T12:35:36;5.20;99.90
45549;DHT22;31270;48.328;10.096;2023-04-03T12:38:32;5.30;99.90
45549;DHT22;31270;48.328;10.096;2023-04-03T12:46:39;5.50;99.90
45549;DHT22;31270;48.328;10.096;2023-04-03T12:49:33;5.50;99.90
45549;DHT22;31270;48.328;10.096;2023-04-03T12:51:59;5.60;99.90
45549;DHT22;31270;48.328;10.096;2023-04-03T12:54:34;5.50;99.90
45549;DHT22;31270;48.328;10.096;2023-04-03T12:57:12;5.40;99.90
45549;DHT22;31270;48.328;10.096;2023-04-03T12:59:37;5.40;99.90
45549;DHT22;31270;48.328;10.096;2023-04-03T13:02:15;5.30;99.90
45549;DHT22;31270;48.328;10.096;2023-04-03T13:04:43;5.30;99.90
45549;DHT22;31270;48.328;10.096;2023-04-03T13:07:40;5.30;99.90
45549;DHT22;31270;48.328;10.096;2023-04-03T13:12:56;5.40;99.90
45549;DHT22;31270;48.328;10.096;2023-04-03T13:15:29;5.40;99.90
45549;DHT22;31270;48.328;10.096;2023-04-03T13:17:56;5.50;99.90
45549;DHT22;31270;48.328;10.096;2023-04-03T13:23:00;5.50;99.90
45549;DHT22;31270;48.328;10.096;2023-04-03T13:25:29;5.50;99.90
45549;DHT22;31270;48.328;10.096;2023-04-03T13:27:58;5.40;99.90
45549;DHT22;31270;48.328;10.096;2023-04-03T13:30:28;5.40;99.90
45549;DHT22;31270;48.328;10.096;2023-04-03T13:32:56;5.40;99.90
45549;DHT22;31270;48.328;10.096;2023-04-03T13:35:36;5.30;99.90
45549;DHT22;31270;48.328;10.096;2023-04-03T13:41:05;5.10;99.90
45549;DHT22;31270;48.328;10.096;2023-04-03T13:43:34;5.00;99.90
45549;DHT22;31270;48.328;10.096;2023-04-03T13:46:27;5.10;99.90
45549;DHT22;31270;48.328;10.096;2023-04-03T13:48:55;5.10;99.90
45549;DHT22;31270;48.328;10.096;2023-04-03T13:51:27;5.30;99.90
45549;DHT22;31270;48.328;10.096;2023-04-03T13:53:59;5.40;99.90
45549;DHT22;31270;48.328;10.096;2023-04-03T13:56:36;5.50;99.90
45549;DHT22;31270;48.328;10.096;2023-04-03T13:59:06;5.60;99.90
45549;DHT22;31270;48.328;10.096;2023-04-03T14:01:44;5.70;99.90
45549;DHT22;31270;48.328;10.096;2023-04-03T14:07:09;5.80;99.90
45549;DHT22;31270;48.328;10.096;2023-04-03T14:09:35;5.90;99.90
45549;DHT22;31270;48.328;10.096;2023-04-03T14:12:06;5.80;99.90
45549;DHT22;31270;48.328;10.096;2023-04-03T14:14:35;5.90;99.90
45549;DHT22;31270;48.328;10.096;2023-04-03T14:17:15;6.00;99.90
45549;DHT22;31270;48.328;10.096;2023-04-03T14:19:41;6.00;99.90
45549;DHT22;31270;48.328;10.096;2023-04-03T14:22:15;5.90;99.90
45549;DHT22;31270;48.328;10.096;2023-04-03T14:24:41;6.00;99.90
45549;DHT22;31270;48.328;10.096;2023-04-03T14:27:28;6.00;99.90
45549;DHT22;31270;48.328;10.096;2023-04-03T14:29:56;6.00;99.90
45549;DHT22;31270;48.328;10.096;2023-04-03T14:32:24;5.90;99.90
45549;DHT22;31270;48.328;10.096;2023-04-03T14:34:50;5.90;99.90
45549;DHT22;31270;48.328;10.096;2023-04-03T14:37:20;5.90;99.90
45549;DHT22;31270;48.328;10.096;2023-04-03T14:39:47;6.00;99.90
45549;DHT22;31270;48.328;10.096;2023-04-03T14:42:19;6.10;99.90
45549;DHT22;31270;48.328;10.096;2023-04-03T14:44:46;6.10;99.90
45549;DHT22;31270;48.328;10.096;2023-04-03T14:47:14;6.10;99.90
45549;DHT22;31270;48.328;10.096;2023-04-03T14:49:41;6.30;99.90
45549;DHT22;31270;48.328;10.096;2023-04-03T14:52:18;6.20;99.90
45549;DHT22;31270;48.328;10.096;2023-04-03T14:54:44;6.20;99.90
45549;DHT22;31270;48.328;10.096;2023-04-03T14:57:12;6.10;99.90
45549;DHT22;31270;48.328;10.096;2023-04-03T14:59:39;6.10;99.90
45549;DHT22;31270;48.328;10.096;2023-04-03T15:02:28;6.20;99.90
45549;DHT22;31270;48.328;10.096;2023-04-03T15:04:55;6.20;99.90
45549;DHT22;31270;48.328;10.096;2023-04-03T15:07:22;6.20;99.90
45549;DHT22;31270;48.328;10.096;2023-04-03T15:09:50;6.10;99.90
45549;DHT22;31270;48.328;10.096;2023-04-03T15:12:16;6.10;99.90
45549;DHT22;31270;48.328;10.096;2023-04-03T15:14:42;5.90;99.90
45549;DHT22;31270;48.328;10.096;2023-04-03T15:17:15;5.90;99.90
45549;DHT22;31270;48.328;10.096;2023-04-03T15:19:41;5.90;99.90
45549;DHT22;31270;48.328;10.096;2023-04-03T15:22:14;6.00;99.90
45549;DHT22;31270;48.328;10.096;2023-04-03T15:24:40;6.00;99.90
45549;DHT22;31270;48.328;10.096;2023-04-03T15:27:05;5.80;99.90
45549;DHT22;31270;48.328;10.096;2023-04-03T15:29:31;5.90;99.90
45549;DHT22;31270;48.328;10.096;2023-04-03T15:31:57;5.80;99.90
45549;DHT22;31270;48.328;10.096;2023-04-03T15:34:23;5.80;99.90
45549;DHT22;31270;48.328;10.096;2023-04-03T15:36:49;5.80;99.90
45549;DHT22;31270;48.328;10.096;2023-04-03T15:39:15;5.60;99.90
45549;DHT22;31270;48.328;10.096;2023-04-03T15:41:41;5.60;99.90
45549;DHT22;31270;48.328;10.096;2023-04-03T15:44:07;5.50;99.90
45549;DHT22;31270;48.328;10.096;2023-04-03T15:46:33;5.40;99.90
45549;DHT22;31270;48.328;10.096;2023-04-03T15:48:58;5.50;99.90
45549;DHT22;31270;48.328;10.096;2023-04-03T15:51:24;5.60;99.90
45549;DHT22;31270;48.328;10.096;2023-04-03T15:53:49;5.70;99.90
45549;DHT22;31270;48.328;10.096;2023-04-03T15:56:15;5.90;99.90
45549;DHT22;31270;48.328;10.096;2023-04-03T15:58:41;5.90;99.90
45549;DHT22;31270;48.328;10.096;2023-04-03T16:01:08;5.80;99.90
45549;DHT22;31270;48.328;10.096;2023-04-03T16:03:34;5.70;99.90
45549;DHT22;31270;48.328;10.096;2023-04-03T16:06:01;5.70;99.90
45549;DHT22;31270;48.328;10.096;2023-04-03T16:08:27;5.60;99.90
45549;DHT22;31270;48.328;10.096;2023-04-03T16:10:53;5.60;99.90
45549;DHT22;31270;48.328;10.096;2023-04-03T16:13:19;5.60;99.90
45549;DHT22;31270;48.328;10.096;2023-04-03T16:15:45;5.50;99.90
45549;DHT22;31270;48.328;10.096;2023-04-03T16:18:11;5.50;99.90
45549;DHT22;31270;48.328;10.096;2023-04-03T16:20:39;5.40;99.90
45549;DHT22;31270;48.328;10.096;2023-04-03T16:23:05;5.40;99.90
45549;DHT22;31270;48.328;10.096;2023-04-03T16:25:30;5.30;99.90
45549;DHT22;31270;48.328;10.096;2023-04-03T16:27:56;5.40;99.90
45549;DHT22;31270;48.328;10.096;2023-04-03T16:30:22;5.40;99.90
45549;DHT22;31270;48.328;10.096;2023-04-03T16:32:47;5.40;99.90
45549;DHT22;31270;48.328;10.096;2023-04-03T16:35:13;5.40;99.90
45549;DHT22;31270;48.328;10.096;2023-04-03T16:37:39;5.30;99.90
45549;DHT22;31270;48.328;10.096;2023-04-03T16:40:06;5.20;99.90
45549;DHT22;31270;48.328;10.096;2023-04-03T16:42:32;5.20;99.90
45549;DHT22;31270;48.328;10.096;2023-04-03T16:44:58;5.20;99.90
45549;DHT22;31270;48.328;10.096;2023-04-03T16:47:27;5.20;99.90
45549;DHT22;31270;48.328;10.096;2023-04-03T16:49:52;5.10;99.90
45549;DHT22;31270;48.328;10.096;2023-04-03T16:52:18;5.00;99.90
45549;DHT22;31270;48.328;10.096;2023-04-03T16:54:44;5.10;99.90
45549;DHT22;31270;48.328;10.096;2023-04-03T16:57:09;4.90;99.90
45549;DHT22;31270;48.328;10.096;2023-04-03T16:59:35;4.80;99.90
45549;DHT22;31270;48.328;10.096;2023-04-03T17:02:01;4.80;99.90
45549;DHT22;31270;48.328;10.096;2023-04-03T17:04:26;4.70;99.90
45549;DHT22;31270;48.328;10.096;2023-04-03T17:06:52;4.90;99.90
45549;DHT22;31270;48.328;10.096;2023-04-03T17:09:18;4.70;99.90
45549;DHT22;31270;48.328;10.096;2023-04-03T17:11:43;4.70;99.90
45549;DHT22;31270;48.328;10.096;2023-04-03T17:14:09;4.70;99.90
45549;DHT22;31270;48.328;10.096;2023-04-03T17:16:37;4.60;99.90
45549;DHT22;31270;48.328;10.096;2023-04-03T17:19:03;4.60;99.90
45549;DHT22;31270;48.328;10.096;2023-04-03T17:21:28;4.50;99.90